sensor_id;sensor_type;location;lat;lon;timestamp;pressure;altitude;pressure_sealevel;temperature;humidity
8894;BME280;4483;48.622;9.230;2023-05-22T00:01:09;97475.50;;;14.62;100.00
8894;BME280;4483;48.622;9.230;2023-05-22T00:03:39;97484.22;;;14.61;100.00
8894;BME280;4483;48.622;9.230;2023-05-22T00:06:05;97479.94;;;14.60;100.00
8894;BME280;4483;48.622;9.230;2023-05-22T00:08:36;97469.03;;;14.55;100.00
8894;BME280;4483;48.622;9.230;2023-05-22T00:11:03;97482.09;;;14.54;100.00
8894;BME280;4483;48.622;9.230;2023-05-22T00:13:30;97472.75;;;14.51;100.00
8894;BME280;4483;48.622;9.230;2023-05-22T00:15:56;97483.22;;;14.50;100.00
8894;BME280;4483;48.622;9.230;2023-05-22T00:18:23;97481.84;;;14.44;100.00
8894;BME280;4483;48.622;9.230;2023-05-22T00:20:51;97479.50;;;14.40;100.00
8894;BME280;4483;48.622;9.230;2023-05-22T00:23:17;97473.69;;;14.36;100.00
8894;BME280;4483;48.622;9.230;2023-05-22T00:25:47;97470.34;;;14.34;100.00
8894;BME280;4483;48.622;9.230;2023-05-22T00:28:15;97467.97;;;14.31;100.00
8894;BME280;4483;48.622;9.230;2023-05-22T00:30:41;97466.38;;;14.29;100.00
8894;BME280;4483;48.622;9.230;2023-05-22T00:33:08;97467.31;;;14.28;100.00
8894;BME280;4483;48.622;9.230;2023-05-22T00:35:36;97471.66;;;14.27;100.00
8894;BME280;4483;48.622;9.230;2023-05-22T00:38:03;97461.28;;;14.27;100.00
8894;BME280;4483;48.622;9.230;2023-05-22T00:40:30;97471.81;;;14.24;100.00
8894;BME280;4483;48.622;9.230;2023-05-22T00:42:58;97474.56;;;14.21;100.00
8894;BME280;4483;48.622;9.230;2023-05-22T00:45:24;97475.72;;;14.17;100.00
8894;BME280;4483;48.622;9.230;2023-05-22T00:47:52;97477.66;;;14.13;100.00
8894;BME280;4483;48.622;9.230;2023-05-22T00:50:19;97467.38;;;14.12;100.00
8894;BME280;4483;48.622;9.230;2023-05-22T00:52:46;97470.16;;;14.09;100.00
8894;BME280;4483;48.622;9.230;2023-05-22T00:55:13;97478.13;;;14.06;100.00
8894;BME280;4483;48.622;9.230;2023-05-22T00:57:41;97472.19;;;14.04;100.00
8894;BME280;4483;48.622;9.230;2023-05-22T01:00:12;97475.69;;;14.03;100.00
8894;BME280;4483;48.622;9.230;2023-05-22T01:02:41;97477.53;;;14.01;100.00
8894;BME280;4483;48.622;9.230;2023-05-22T01:05:10;97479.41;;;13.99;100.00
8894;BME280;4483;48.622;9.230;2023-05-22T01:07:37;97480.41;;;13.96;100.00
8894;BME280;4483;48.622;9.230;2023-05-22T01:10:04;97485.78;;;13.93;100.00
8894;BME280;4483;48.622;9.230;2023-05-22T01:12:40;97484.22;;;13.91;100.00
8894;BME280;4483;48.622;9.230;2023-05-22T01:15:19;97458.97;;;13.80;100.00
8894;BME280;4483;48.622;9.230;2023-05-22T01:17:52;97478.19;;;13.90;100.00
8894;BME280;4483;48.622;9.230;2023-05-22T01:20:24;97479.03;;;13.91;100.00
8894;BME280;4483;48.622;9.230;2023-05-22T01:23:36;97478.94;;;13.92;100.00
8894;BME280;4483;48.622;9.230;2023-05-22T01:26:21;97485.13;;;13.90;100.00
8894;BME280;4483;48.622;9.230;2023-05-22T01:29:08;97484.47;;;13.86;100.00
8894;BME280;4483;48.622;9.230;2023-05-22T01:31:40;97490.69;;;13.84;100.00
8894;BME280;4483;48.622;9.230;2023-05-22T01:34:10;97490.84;;;13.81;100.00
8894;BME280;4483;48.622;9.230;2023-05-22T01:36:37;97484.53;;;13.71;100.00
8894;BME280;4483;48.622;9.230;2023-05-22T01:39:05;97489.22;;;13.64;100.00
8894;BME280;4483;48.622;9.230;2023-05-22T01:41:33;97494.59;;;13.61;100.00
8894;BME280;4483;48.622;9.230;2023-05-22T01:44:00;97495.53;;;13.60;100.00
8894;BME280;4483;48.622;9.230;2023-05-22T01:46:28;97492.34;;;13.55;100.00
8894;BME280;4483;48.622;9.230;2023-05-22T01:48:56;97494.94;;;13.55;100.00
8894;BME280;4483;48.622;9.230;2023-05-22T01:51:28;97495.97;;;13.53;100.00
8894;BME280;4483;48.622;9.230;2023-05-22T01:54:04;97497.91;;;13.49;100.00
8894;BME280;4483;48.622;9.230;2023-05-22T01:56:38;97502.44;;;13.46;100.00
8894;BME280;4483;48.622;9.230;2023-05-22T01:59:13;97499.09;;;13.44;100.00
8894;BME280;4483;48.622;9.230;2023-05-22T02:01:42;97508.59;;;13.43;100.00
8894;BME280;4483;48.622;9.230;2023-05-22T02:04:12;97517.34;;;13.41;100.00
8894;BME280;4483;48.622;9.230;2023-05-22T02:06:40;97508.13;;;13.37;100.00
8894;BME280;4483;48.622;9.230;2023-05-22T02:09:09;97509.22;;;13.33;100.00
8894;BME280;4483;48.622;9.230;2023-05-22T02:11:37;97504.78;;;13.35;100.00
8894;BME280;4483;48.622;9.230;2023-05-22T02:14:05;97503.94;;;13.34;100.00
8894;BME280;4483;48.622;9.230;2023-05-22T02:16:33;97502.44;;;13.30;100.00
8894;BME280;4483;48.622;9.230;2023-05-22T02:19:00;97501.59;;;13.30;100.00
8894;BME280;4483;48.622;9.230;2023-05-22T02:21:32;97493.94;;;13.28;100.00
8894;BME280;4483;48.622;9.230;2023-05-22T02:23:59;97488.84;;;13.27;100.00
8894;BME280;4483;48.622;9.230;2023-05-22T02:26:25;97496.38;;;13.31;100.00
8894;BME280;4483;48.622;9.230;2023-05-22T02:28:52;97499.78;;;13.32;100.00
8894;BME280;4483;48.622;9.230;2023-05-22T02:31:18;97497.19;;;13.32;100.00
8894;BME280;4483;48.622;9.230;2023-05-22T02:33:45;97495.44;;;13.32;100.00
8894;BME280;4483;48.622;9.230;2023-05-22T02:36:12;97501.47;;;13.33;100.00
8894;BME280;4483;48.622;9.230;2023-05-22T02:38:40;97498.13;;;13.31;100.00
8894;BME280;4483;48.622;9.230;2023-05-22T02:41:07;97487.78;;;13.31;100.00
8894;BME280;4483;48.622;9.230;2023-05-22T02:43:33;97499.78;;;13.32;100.00
8894;BME280;4483;48.622;9.230;2023-05-22T02:46:00;97494.44;;;13.35;100.00
8894;BME280;4483;48.622;9.230;2023-05-22T02:48:27;97498.88;;;13.33;100.00
8894;BME280;4483;48.622;9.230;2023-05-22T02:50:53;97500.63;;;13.32;100.00
8894;BME280;4483;48.622;9.230;2023-05-22T02:53:20;97498.13;;;13.31;100.00
8894;BME280;4483;48.622;9.230;2023-05-22T02:55:48;97498.88;;;13.33;100.00
8894;BME280;4483;48.622;9.230;2023-05-22T02:58:17;97502.25;;;13.33;100.00
8894;BME280;4483;48.622;9.230;2023-05-22T03:00:43;97499.69;;;13.33;100.00
8894;BME280;4483;48.622;9.230;2023-05-22T03:03:10;97503.38;;;13.29;100.00
8894;BME280;4483;48.622;9.230;2023-05-22T03:05:37;97506.78;;;13.30;100.00
8894;BME280;4483;48.622;9.230;2023-05-22T03:08:04;97507.72;;;13.29;100.00
8894;BME280;4483;48.622;9.230;2023-05-22T03:10:30;97506.88;;;13.28;100.00
8894;BME280;4483;48.622;9.230;2023-05-22T03:12:58;97506.03;;;13.28;100.00
8894;BME280;4483;48.622;9.230;2023-05-22T03:15:25;97516.38;;;13.28;100.00
8894;BME280;4483;48.622;9.230;2023-05-22T03:17:52;97512.88;;;13.29;100.00
8894;BME280;4483;48.622;9.230;2023-05-22T03:20:18;97513.78;;;13.28;100.00
8894;BME280;4483;48.622;9.230;2023-05-22T03:22:45;97506.97;;;13.27;100.00
8894;BME280;4483;48.622;9.230;2023-05-22T03:25:12;97501.78;;;13.27;100.00
8894;BME280;4483;48.622;9.230;2023-05-22T03:27:38;97510.41;;;13.27;100.00
8894;BME280;4483;48.622;9.230;2023-05-22T03:30:07;97504.56;;;13.24;100.00
8894;BME280;4483;48.622;9.230;2023-05-22T03:32:34;97518.25;;;13.26;100.00
8894;BME280;4483;48.622;9.230;2023-05-22T03:35:02;97515.72;;;13.24;100.00
8894;BME280;4483;48.622;9.230;2023-05-22T03:37:29;97512.47;;;13.21;100.00
8894;BME280;4483;48.622;9.230;2023-05-22T03:39:55;97513.22;;;13.23;100.00
8894;BME280;4483;48.622;9.230;2023-05-22T03:42:22;97515.66;;;13.26;100.00
8894;BME280;4483;48.622;9.230;2023-05-22T03:44:48;97515.81;;;13.23;100.00
8894;BME280;4483;48.622;9.230;2023-05-22T03:47:16;97515.00;;;13.22;100.00
8894;BME280;4483;48.622;9.230;2023-05-22T03:49:43;97511.56;;;13.22;100.00
8894;BME280;4483;48.622;9.230;2023-05-22T03:52:09;97510.91;;;13.18;100.00
8894;BME280;4483;48.622;9.230;2023-05-22T03:54:36;97514.41;;;13.17;100.00
8894;BME280;4483;48.622;9.230;2023-05-22T03:57:03;97509.88;;;13.21;100.00
8894;BME280;4483;48.622;9.230;2023-05-22T03:59:30;97517.41;;;13.25;100.00
8894;BME280;4483;48.622;9.230;2023-05-22T04:01:57;97510.31;;;13.29;100.00
8894;BME280;4483;48.622;9.230;2023-05-22T04:04:26;97516.22;;;13.31;100.00
8894;BME280;4483;48.622;9.230;2023-05-22T04:06:53;97521.50;;;13.29;100.00
8894;BME280;4483;48.622;9.230;2023-05-22T04:09:24;97521.56;;;13.28;100.00
8894;BME280;4483;48.622;9.230;2023-05-22T04:11:51;97524.88;;;13.30;100.00
8894;BME280;4483;48.622;9.230;2023-05-22T04:14:18;97511.06;;;13.31;100.00
8894;BME280;4483;48.622;9.230;2023-05-22T04:16:45;97521.88;;;13.37;100.00
8894;BME280;4483;48.622;9.230;2023-05-22T04:19:11;97525.06;;;13.42;100.00
8894;BME280;4483;48.622;9.230;2023-05-22T04:21:39;97528.22;;;13.47;100.00
8894;BME280;4483;48.622;9.230;2023-05-22T04:24:07;97528.88;;;13.51;100.00
8894;BME280;4483;48.622;9.230;2023-05-22T04:26:33;97527.03;;;13.53;100.00
8894;BME280;4483;48.622;9.230;2023-05-22T04:29:00;97529.53;;;13.54;100.00
8894;BME280;4483;48.622;9.230;2023-05-22T04:31:27;97534.59;;;13.56;100.00
8894;BME280;4483;48.622;9.230;2023-05-22T04:33:54;97533.53;;;13.60;100.00
8894;BME280;4483;48.622;9.230;2023-05-22T04:36:24;97536.56;;;13.66;100.00
8894;BME280;4483;48.622;9.230;2023-05-22T04:38:52;97529.47;;;13.70;100.00
8894;BME280;4483;48.622;9.230;2023-05-22T04:41:19;97523.94;;;13.76;100.00
8894;BME280;4483;48.622;9.230;2023-05-22T04:43:46;97528.41;;;13.88;100.00
8894;BME280;4483;48.622;9.230;2023-05-22T04:46:13;97538.25;;;13.97;100.00
8894;BME280;4483;48.622;9.230;2023-05-22T04:48:40;97540.38;;;14.04;100.00
8894;BME280;4483;48.622;9.230;2023-05-22T04:51:07;97537.31;;;14.12;100.00
8894;BME280;4483;48.622;9.230;2023-05-22T04:53:33;97540.28;;;14.20;100.00
8894;BME280;4483;48.622;9.230;2023-05-22T04:56:05;97536.81;;;14.35;100.00
8894;BME280;4483;48.622;9.230;2023-05-22T04:58:32;97539.88;;;14.56;100.00
8894;BME280;4483;48.622;9.230;2023-05-22T05:00:58;97530.97;;;14.74;100.00
8894;BME280;4483;48.622;9.230;2023-05-22T05:03:25;97537.28;;;14.96;100.00
8894;BME280;4483;48.622;9.230;2023-05-22T05:05:52;97534.28;;;15.17;100.00
8894;BME280;4483;48.622;9.230;2023-05-22T05:08:19;97523.38;;;15.38;100.00
8894;BME280;4483;48.622;9.230;2023-05-22T05:10:46;97528.41;;;15.54;100.00
8894;BME280;4483;48.622;9.230;2023-05-22T05:13:14;97526.91;;;15.64;100.00
8894;BME280;4483;48.622;9.230;2023-05-22T05:15:40;97527.34;;;15.83;100.00
8894;BME280;4483;48.622;9.230;2023-05-22T05:18:07;97543.88;;;16.07;100.00
8894;BME280;4483;48.622;9.230;2023-05-22T05:20:34;97545.88;;;16.16;100.00
8894;BME280;4483;48.622;9.230;2023-05-22T05:23:01;97544.09;;;16.29;100.00
8894;BME280;4483;48.622;9.230;2023-05-22T05:25:27;97545.75;;;16.43;100.00
8894;BME280;4483;48.622;9.230;2023-05-22T05:27:54;97548.28;;;16.57;100.00
8894;BME280;4483;48.622;9.230;2023-05-22T05:30:23;97542.94;;;16.71;100.00
8894;BME280;4483;48.622;9.230;2023-05-22T05:32:49;97544.88;;;16.92;100.00
8894;BME280;4483;48.622;9.230;2023-05-22T05:35:16;97543.13;;;17.17;100.00
8894;BME280;4483;48.622;9.230;2023-05-22T05:37:42;97545.03;;;17.38;100.00
8894;BME280;4483;48.622;9.230;2023-05-22T05:40:10;97545.03;;;17.62;100.00
8894;BME280;4483;48.622;9.230;2023-05-22T05:42:37;97542.31;;;17.87;100.00
8894;BME280;4483;48.622;9.230;2023-05-22T05:45:04;97536.78;;;18.14;99.98
8894;BME280;4483;48.622;9.230;2023-05-22T05:47:32;97534.81;;;18.39;99.19
8894;BME280;4483;48.622;9.230;2023-05-22T05:49:59;97531.78;;;18.67;98.60
8894;BME280;4483;48.622;9.230;2023-05-22T05:52:25;97537.31;;;18.96;97.57
8894;BME280;4483;48.622;9.230;2023-05-22T05:54:56;97526.47;;;19.23;96.08
8894;BME280;4483;48.622;9.230;2023-05-22T05:57:25;97528.53;;;19.51;94.69
8894;BME280;4483;48.622;9.230;2023-05-22T05:59:51;97532.19;;;19.80;93.70
8894;BME280;4483;48.622;9.230;2023-05-22T06:02:18;97530.88;;;20.06;92.17
8894;BME280;4483;48.622;9.230;2023-05-22T06:04:46;97534.31;;;20.18;90.81
8894;BME280;4483;48.622;9.230;2023-05-22T06:07:13;97529.63;;;20.21;89.38
8894;BME280;4483;48.622;9.230;2023-05-22T06:09:41;97540.09;;;20.21;88.81
8894;BME280;4483;48.622;9.230;2023-05-22T06:12:08;97536.88;;;20.38;88.12
8894;BME280;4483;48.622;9.230;2023-05-22T06:14:37;97542.63;;;20.62;88.06
8894;BME280;4483;48.622;9.230;2023-05-22T06:17:04;97541.75;;;20.82;86.83
8894;BME280;4483;48.622;9.230;2023-05-22T06:19:33;97545.34;;;20.81;85.45
8894;BME280;4483;48.622;9.230;2023-05-22T06:22:01;97550.25;;;20.65;84.58
8894;BME280;4483;48.622;9.230;2023-05-22T06:24:27;97551.16;;;20.55;84.81
8894;BME280;4483;48.622;9.230;2023-05-22T06:26:56;97557.28;;;20.44;85.12
8894;BME280;4483;48.622;9.230;2023-05-22T06:29:22;97554.25;;;20.39;85.76
8894;BME280;4483;48.622;9.230;2023-05-22T06:31:49;97549.84;;;20.40;86.25
8894;BME280;4483;48.622;9.230;2023-05-22T06:34:15;97551.69;;;20.49;85.93
8894;BME280;4483;48.622;9.230;2023-05-22T06:36:42;97551.34;;;20.63;85.91
8894;BME280;4483;48.622;9.230;2023-05-22T06:39:12;97550.53;;;20.72;85.29
8894;BME280;4483;48.622;9.230;2023-05-22T06:41:39;97554.84;;;20.82;84.62
8894;BME280;4483;48.622;9.230;2023-05-22T06:44:05;97546.47;;;21.19;84.56
8894;BME280;4483;48.622;9.230;2023-05-22T06:46:32;97545.25;;;21.70;83.49
8894;BME280;4483;48.622;9.230;2023-05-22T06:48:58;97541.53;;;22.30;81.54
8894;BME280;4483;48.622;9.230;2023-05-22T06:51:25;97540.66;;;22.85;79.66
8894;BME280;4483;48.622;9.230;2023-05-22T06:53:52;97538.41;;;23.45;77.52
8894;BME280;4483;48.622;9.230;2023-05-22T06:56:20;97541.78;;;23.90;74.61
8894;BME280;4483;48.622;9.230;2023-05-22T06:58:46;97545.28;;;24.08;72.59
8894;BME280;4483;48.622;9.230;2023-05-22T07:01:13;97543.69;;;24.15;70.76
8894;BME280;4483;48.622;9.230;2023-05-22T07:03:40;97541.88;;;24.41;69.84
8894;BME280;4483;48.622;9.230;2023-05-22T07:06:06;97536.28;;;24.70;68.54
8894;BME280;4483;48.622;9.230;2023-05-22T07:08:33;97544.19;;;25.04;66.72
8894;BME280;4483;48.622;9.230;2023-05-22T07:11:00;97539.03;;;25.28;65.03
8894;BME280;4483;48.622;9.230;2023-05-22T07:13:28;97540.25;;;25.49;64.02
8894;BME280;4483;48.622;9.230;2023-05-22T07:15:56;97546.13;;;25.35;62.76
8894;BME280;4483;48.622;9.230;2023-05-22T07:18:22;97545.31;;;24.93;62.15
8894;BME280;4483;48.622;9.230;2023-05-22T07:20:49;97554.38;;;24.39;62.53
8894;BME280;4483;48.622;9.230;2023-05-22T07:23:16;97548.88;;;23.89;63.43
8894;BME280;4483;48.622;9.230;2023-05-22T07:25:42;97550.50;;;23.55;65.08
8894;BME280;4483;48.622;9.230;2023-05-22T07:28:09;97549.84;;;23.26;66.08
8894;BME280;4483;48.622;9.230;2023-05-22T07:30:37;97550.69;;;23.00;66.75
8894;BME280;4483;48.622;9.230;2023-05-22T07:33:04;97550.91;;;22.79;67.99
8894;BME280;4483;48.622;9.230;2023-05-22T07:35:31;97552.63;;;22.70;68.69
8894;BME280;4483;48.622;9.230;2023-05-22T07:37:57;97559.28;;;22.65;69.13
8894;BME280;4483;48.622;9.230;2023-05-22T07:40:24;97553.59;;;22.60;69.37
8894;BME280;4483;48.622;9.230;2023-05-22T07:42:50;97548.50;;;22.58;69.70
8894;BME280;4483;48.622;9.230;2023-05-22T07:45:17;97550.44;;;22.56;69.61
8894;BME280;4483;48.622;9.230;2023-05-22T07:47:45;97557.06;;;22.60;69.15
8894;BME280;4483;48.622;9.230;2023-05-22T07:50:12;97552.63;;;22.70;68.91
8894;BME280;4483;48.622;9.230;2023-05-22T07:52:38;97545.06;;;22.94;69.30
8894;BME280;4483;48.622;9.230;2023-05-22T07:55:06;97548.81;;;23.64;68.94
8894;BME280;4483;48.622;9.230;2023-05-22T07:57:33;97551.84;;;24.55;67.06
8894;BME280;4483;48.622;9.230;2023-05-22T08:00:00;97548.56;;;25.21;64.62
8894;BME280;4483;48.622;9.230;2023-05-22T08:02:37;97537.78;;;25.40;61.71
8894;BME280;4483;48.622;9.230;2023-05-22T08:05:06;97545.63;;;25.32;61.60
8894;BME280;4483;48.622;9.230;2023-05-22T08:07:33;97553.16;;;25.19;61.36
8894;BME280;4483;48.622;9.230;2023-05-22T08:10:01;97550.31;;;25.38;61.16
8894;BME280;4483;48.622;9.230;2023-05-22T08:12:28;97544.84;;;25.39;60.92
8894;BME280;4483;48.622;9.230;2023-05-22T08:14:54;97543.09;;;25.56;60.55
8894;BME280;4483;48.622;9.230;2023-05-22T08:17:21;97547.41;;;25.73;60.18
8894;BME280;4483;48.622;9.230;2023-05-22T08:19:47;97545.56;;;25.65;59.74
8894;BME280;4483;48.622;9.230;2023-05-22T08:22:15;97548.66;;;25.53;59.68
8894;BME280;4483;48.622;9.230;2023-05-22T08:24:42;97553.59;;;25.40;60.25
8894;BME280;4483;48.622;9.230;2023-05-22T08:27:08;97553.19;;;25.27;60.37
8894;BME280;4483;48.622;9.230;2023-05-22T08:29:35;97546.72;;;25.13;60.52
8894;BME280;4483;48.622;9.230;2023-05-22T08:32:02;97549.47;;;25.04;61.30
8894;BME280;4483;48.622;9.230;2023-05-22T08:34:28;97550.13;;;24.98;61.51
8894;BME280;4483;48.622;9.230;2023-05-22T08:36:56;97545.31;;;24.93;61.60
8894;BME280;4483;48.622;9.230;2023-05-22T08:39:24;97541.84;;;24.92;61.92
8894;BME280;4483;48.622;9.230;2023-05-22T08:41:51;97547.44;;;24.89;61.83
8894;BME280;4483;48.622;9.230;2023-05-22T08:44:18;97539.66;;;24.80;62.16
8894;BME280;4483;48.622;9.230;2023-05-22T08:46:45;97542.94;;;24.74;62.08
8894;BME280;4483;48.622;9.230;2023-05-22T08:49:12;97542.03;;;24.65;61.85
8894;BME280;4483;48.622;9.230;2023-05-22T08:51:40;97542.19;;;24.64;62.25
8894;BME280;4483;48.622;9.230;2023-05-22T08:54:08;97541.06;;;24.66;61.99
8894;BME280;4483;48.622;9.230;2023-05-22T08:56:37;97539.16;;;24.76;62.17
8894;BME280;4483;48.622;9.230;2023-05-22T08:59:05;97543.75;;;25.08;62.04
8894;BME280;4483;48.622;9.230;2023-05-22T09:01:32;97535.50;;;25.77;61.21
8894;BME280;4483;48.622;9.230;2023-05-22T09:04:00;97533.88;;;26.40;59.63
8894;BME280;4483;48.622;9.230;2023-05-22T09:06:27;97528.44;;;27.05;58.64
8894;BME280;4483;48.622;9.230;2023-05-22T09:08:54;97529.59;;;27.63;56.71
8894;BME280;4483;48.622;9.230;2023-05-22T09:11:21;97523.41;;;28.02;54.98
8894;BME280;4483;48.622;9.230;2023-05-22T09:13:49;97532.22;;;28.31;54.01
8894;BME280;4483;48.622;9.230;2023-05-22T09:16:17;97528.09;;;28.66;53.19
8894;BME280;4483;48.622;9.230;2023-05-22T09:18:44;97527.09;;;28.82;51.79
8894;BME280;4483;48.622;9.230;2023-05-22T09:21:11;97527.78;;;29.05;51.67
8894;BME280;4483;48.622;9.230;2023-05-22T09:23:38;97513.06;;;29.31;51.03
8894;BME280;4483;48.622;9.230;2023-05-22T09:26:05;97516.66;;;29.45;50.66
8894;BME280;4483;48.622;9.230;2023-05-22T09:28:33;97511.56;;;29.79;50.11
8894;BME280;4483;48.622;9.230;2023-05-22T09:31:02;97513.03;;;30.09;49.37
8894;BME280;4483;48.622;9.230;2023-05-22T09:33:30;97506.56;;;30.39;49.42
8894;BME280;4483;48.622;9.230;2023-05-22T09:35:57;97505.31;;;30.69;48.46
8894;BME280;4483;48.622;9.230;2023-05-22T09:38:27;97503.59;;;30.90;48.16
8894;BME280;4483;48.622;9.230;2023-05-22T09:40:55;97511.22;;;30.93;47.58
8894;BME280;4483;48.622;9.230;2023-05-22T09:43:22;97507.41;;;30.81;46.66
8894;BME280;4483;48.622;9.230;2023-05-22T09:45:55;97507.34;;;30.67;46.39
8894;BME280;4483;48.622;9.230;2023-05-22T09:48:23;97506.09;;;30.63;46.52
8894;BME280;4483;48.622;9.230;2023-05-22T09:50:52;97501.47;;;30.79;47.07
8894;BME280;4483;48.622;9.230;2023-05-22T09:53:24;97495.13;;;31.14;46.66
8894;BME280;4483;48.622;9.230;2023-05-22T09:55:52;97498.25;;;31.30;45.99
8894;BME280;4483;48.622;9.230;2023-05-22T09:58:21;97501.91;;;31.23;45.97
8894;BME280;4483;48.622;9.230;2023-05-22T10:00:51;97500.69;;;31.32;45.00
8894;BME280;4483;48.622;9.230;2023-05-22T10:03:23;97498.53;;;31.42;44.95
8894;BME280;4483;48.622;9.230;2023-05-22T10:05:53;97488.53;;;31.57;45.20
8894;BME280;4483;48.622;9.230;2023-05-22T10:08:23;97491.00;;;31.78;44.85
8894;BME280;4483;48.622;9.230;2023-05-22T10:10:50;97479.56;;;31.91;45.08
8894;BME280;4483;48.622;9.230;2023-05-22T10:13:17;97494.72;;;32.03;44.37
8894;BME280;4483;48.622;9.230;2023-05-22T10:15:46;97487.16;;;32.00;43.52
8894;BME280;4483;48.622;9.230;2023-05-22T10:18:13;97490.03;;;32.12;44.24
8894;BME280;4483;48.622;9.230;2023-05-22T10:20:42;97485.50;;;32.32;44.21
8894;BME280;4483;48.622;9.230;2023-05-22T10:23:09;97491.66;;;32.45;43.38
8894;BME280;4483;48.622;9.230;2023-05-22T10:25:36;97487.56;;;32.49;43.61
8894;BME280;4483;48.622;9.230;2023-05-22T10:28:04;97482.41;;;32.54;42.70
8894;BME280;4483;48.622;9.230;2023-05-22T10:30:33;97482.19;;;32.63;42.65
8894;BME280;4483;48.622;9.230;2023-05-22T10:33:06;97482.81;;;32.65;42.49
8894;BME280;4483;48.622;9.230;2023-05-22T10:35:40;97476.84;;;32.63;42.18
8894;BME280;4483;48.622;9.230;2023-05-22T10:41:15;97472.31;;;32.70;42.68
8894;BME280;4483;48.622;9.230;2023-05-22T10:43:42;97468.81;;;32.76;42.03
8894;BME280;4483;48.622;9.230;2023-05-22T10:46:11;97461.25;;;32.73;41.99
8894;BME280;4483;48.622;9.230;2023-05-22T10:48:38;97464.31;;;32.70;42.05
8894;BME280;4483;48.622;9.230;2023-05-22T10:51:05;97458.97;;;32.70;41.45
8894;BME280;4483;48.622;9.230;2023-05-22T10:53:33;97461.47;;;32.65;41.44
8894;BME280;4483;48.622;9.230;2023-05-22T10:56:09;97455.91;;;32.66;42.08
8894;BME280;4483;48.622;9.230;2023-05-22T10:58:38;97453.03;;;32.68;41.33
8894;BME280;4483;48.622;9.230;2023-05-22T11:01:09;97452.38;;;32.79;42.81
8894;BME280;4483;48.622;9.230;2023-05-22T11:03:58;97440.44;;;32.88;41.78
8894;BME280;4483;48.622;9.230;2023-05-22T11:06:36;97439.19;;;32.97;41.94
8894;BME280;4483;48.622;9.230;2023-05-22T11:09:28;97439.19;;;33.03;41.05
8894;BME280;4483;48.622;9.230;2023-05-22T11:12:15;97442.06;;;33.02;41.12
8894;BME280;4483;48.622;9.230;2023-05-22T11:14:47;97429.75;;;32.88;40.45
8894;BME280;4483;48.622;9.230;2023-05-22T11:17:16;97429.34;;;32.97;40.49
8894;BME280;4483;48.622;9.230;2023-05-22T11:19:47;97422.44;;;33.21;40.78
8894;BME280;4483;48.622;9.230;2023-05-22T11:22:16;97421.31;;;33.41;39.89
8894;BME280;4483;48.622;9.230;2023-05-22T11:24:43;97425.22;;;33.70;40.07
8894;BME280;4483;48.622;9.230;2023-05-22T11:27:10;97415.56;;;33.94;39.36
8894;BME280;4483;48.622;9.230;2023-05-22T11:29:37;97409.19;;;34.19;38.67
8894;BME280;4483;48.622;9.230;2023-05-22T11:32:11;97414.03;;;34.29;37.27
8894;BME280;4483;48.622;9.230;2023-05-22T11:34:39;97398.53;;;34.37;37.79
8894;BME280;4483;48.622;9.230;2023-05-22T11:37:06;97405.34;;;34.33;36.52
8894;BME280;4483;48.622;9.230;2023-05-22T11:39:33;97406.00;;;34.29;36.69
8894;BME280;4483;48.622;9.230;2023-05-22T11:42:00;97403.34;;;34.29;36.50
8894;BME280;4483;48.622;9.230;2023-05-22T11:44:28;97396.28;;;34.34;36.52
8894;BME280;4483;48.622;9.230;2023-05-22T11:46:55;97386.72;;;34.45;36.66
8894;BME280;4483;48.622;9.230;2023-05-22T11:49:23;97385.81;;;34.33;36.05
8894;BME280;4483;48.622;9.230;2023-05-22T11:51:50;97388.84;;;34.36;35.69
8894;BME280;4483;48.622;9.230;2023-05-22T11:54:17;97380.13;;;34.47;35.72
8894;BME280;4483;48.622;9.230;2023-05-22T11:56:44;97385.59;;;34.71;35.38
8894;BME280;4483;48.622;9.230;2023-05-22T11:59:10;97371.81;;;34.85;34.88
8894;BME280;4483;48.622;9.230;2023-05-22T12:01:37;97373.69;;;35.03;34.50
8894;BME280;4483;48.622;9.230;2023-05-22T12:04:03;97372.31;;;35.12;34.79
8894;BME280;4483;48.622;9.230;2023-05-22T12:06:31;97380.41;;;35.35;34.93
8894;BME280;4483;48.622;9.230;2023-05-22T12:08:59;97372.28;;;35.41;35.02
8894;BME280;4483;48.622;9.230;2023-05-22T12:11:26;97381.78;;;35.26;35.11
8894;BME280;4483;48.622;9.230;2023-05-22T12:13:59;97379.28;;;35.13;34.84
8894;BME280;4483;48.622;9.230;2023-05-22T12:16:25;97389.16;;;34.83;33.88
8894;BME280;4483;48.622;9.230;2023-05-22T12:18:52;97384.44;;;34.67;34.06
8894;BME280;4483;48.622;9.230;2023-05-22T12:21:19;97384.88;;;34.45;34.68
8894;BME280;4483;48.622;9.230;2023-05-22T12:23:48;97384.19;;;34.32;34.81
8894;BME280;4483;48.622;9.230;2023-05-22T12:26:15;97376.78;;;34.52;35.73
8894;BME280;4483;48.622;9.230;2023-05-22T12:28:42;97377.56;;;34.71;35.06
8894;BME280;4483;48.622;9.230;2023-05-22T12:31:09;97373.88;;;34.72;35.31
8894;BME280;4483;48.622;9.230;2023-05-22T12:33:38;97378.63;;;34.52;35.16
8894;BME280;4483;48.622;9.230;2023-05-22T12:36:06;97376.84;;;34.45;35.30
8894;BME280;4483;48.622;9.230;2023-05-22T12:38:33;97377.28;;;34.42;35.51
8894;BME280;4483;48.622;9.230;2023-05-22T12:41:01;97381.53;;;34.32;35.12
8894;BME280;4483;48.622;9.230;2023-05-22T12:43:28;97380.59;;;34.38;36.02
8894;BME280;4483;48.622;9.230;2023-05-22T12:45:55;97379.81;;;34.37;35.94
8894;BME280;4483;48.622;9.230;2023-05-22T12:48:21;97378.16;;;34.36;36.10
8894;BME280;4483;48.622;9.230;2023-05-22T12:50:48;97372.16;;;34.41;36.33
8894;BME280;4483;48.622;9.230;2023-05-22T12:53:14;97384.22;;;34.07;36.33
8894;BME280;4483;48.622;9.230;2023-05-22T12:55:41;97382.59;;;34.06;36.42
8894;BME280;4483;48.622;9.230;2023-05-22T12:58:09;97377.28;;;34.24;36.88
8894;BME280;4483;48.622;9.230;2023-05-22T13:00:36;97378.44;;;34.28;36.40
8894;BME280;4483;48.622;9.230;2023-05-22T13:03:04;97358.84;;;34.34;35.52
8894;BME280;4483;48.622;9.230;2023-05-22T13:05:31;97367.47;;;34.18;34.70
8894;BME280;4483;48.622;9.230;2023-05-22T13:07:58;97370.13;;;34.18;35.14
8894;BME280;4483;48.622;9.230;2023-05-22T13:10:24;97359.28;;;34.31;34.60
8894;BME280;4483;48.622;9.230;2023-05-22T13:12:51;97362.84;;;34.43;34.23
8894;BME280;4483;48.622;9.230;2023-05-22T13:15:19;97359.72;;;34.28;33.53
8894;BME280;4483;48.622;9.230;2023-05-22T13:17:45;97373.91;;;34.11;34.61
8894;BME280;4483;48.622;9.230;2023-05-22T13:20:12;97362.97;;;34.12;34.61
8894;BME280;4483;48.622;9.230;2023-05-22T13:22:39;97359.81;;;34.22;34.85
8894;BME280;4483;48.622;9.230;2023-05-22T13:25:07;97364.31;;;34.21;34.62